sensor_id;sensor_type;location;lat;lon;timestamp;P1;durP1;ratioP1;P2;durP2;ratioP2
15645;SDS011;7922;43.622;1.476;2023-07-20T00:00:00;9.77;;;6.47;;
15645;SDS011;7922;43.622;1.476;2023-07-20T00:02:26;9.93;;;5.97;;
15645;SDS011;7922;43.622;1.476;2023-07-20T00:04:51;8.93;;;6.00;;
15645;SDS011;7922;43.622;1.476;2023-07-20T00:07:16;6.70;;;5.63;;
15645;SDS011;7922;43.622;1.476;2023-07-20T00:09:42;8.53;;;5.50;;
15645;SDS011;7922;43.622;1.476;2023-07-20T00:12:07;11.00;;;6.03;;
15645;SDS011;7922;43.622;1.476;2023-07-20T00:14:33;7.50;;;5.97;;
15645;SDS011;7922;43.622;1.476;2023-07-20T00:16:58;7.47;;;5.57;;
15645;SDS011;7922;43.622;1.476;2023-07-20T00:19:26;8.73;;;5.10;;
15645;SDS011;7922;43.622;1.476;2023-07-20T00:21:53;10.87;;;5.70;;
15645;SDS011;7922;43.622;1.476;2023-07-20T00:24:18;10.17;;;5.70;;
15645;SDS011;7922;43.622;1.476;2023-07-20T00:26:44;7.47;;;5.83;;
15645;SDS011;7922;43.622;1.476;2023-07-20T00:29:09;7.53;;;5.43;;
15645;SDS011;7922;43.622;1.476;2023-07-20T00:31:35;6.07;;;5.47;;
15645;SDS011;7922;43.622;1.476;2023-07-20T00:34:00;9.40;;;5.43;;
15645;SDS011;7922;43.622;1.476;2023-07-20T00:36:26;6.87;;;5.57;;
15645;SDS011;7922;43.622;1.476;2023-07-20T00:38:51;8.07;;;5.50;;
15645;SDS011;7922;43.622;1.476;2023-07-20T00:41:16;6.77;;;5.37;;
15645;SDS011;7922;43.622;1.476;2023-07-20T00:43:41;9.67;;;5.10;;
15645;SDS011;7922;43.622;1.476;2023-07-20T00:46:07;8.30;;;5.77;;
15645;SDS011;7922;43.622;1.476;2023-07-20T00:48:34;9.67;;;5.83;;
15645;SDS011;7922;43.622;1.476;2023-07-20T00:50:59;6.40;;;5.20;;
15645;SDS011;7922;43.622;1.476;2023-07-20T00:53:26;5.80;;;4.70;;
15645;SDS011;7922;43.622;1.476;2023-07-20T00:55:52;7.27;;;5.37;;
15645;SDS011;7922;43.622;1.476;2023-07-20T00:58:17;7.40;;;5.47;;
15645;SDS011;7922;43.622;1.476;2023-07-20T01:00:42;8.97;;;5.50;;
15645;SDS011;7922;43.622;1.476;2023-07-20T01:03:08;6.03;;;5.43;;
15645;SDS011;7922;43.622;1.476;2023-07-20T01:05:35;9.00;;;6.20;;
15645;SDS011;7922;43.622;1.476;2023-07-20T01:11:13;8.10;;;5.30;;
15645;SDS011;7922;43.622;1.476;2023-07-20T01:13:47;6.47;;;5.23;;
15645;SDS011;7922;43.622;1.476;2023-07-20T01:16:13;9.13;;;5.87;;
15645;SDS011;7922;43.622;1.476;2023-07-20T01:18:38;7.80;;;6.03;;
15645;SDS011;7922;43.622;1.476;2023-07-20T01:21:06;7.83;;;5.70;;
15645;SDS011;7922;43.622;1.476;2023-07-20T01:29:49;10.33;;;5.70;;
15645;SDS011;7922;43.622;1.476;2023-07-20T01:32:19;8.53;;;5.90;;
15645;SDS011;7922;43.622;1.476;2023-07-20T01:34:48;7.10;;;5.40;;
15645;SDS011;7922;43.622;1.476;2023-07-20T01:37:17;7.57;;;5.47;;
15645;SDS011;7922;43.622;1.476;2023-07-20T01:39:43;8.83;;;5.90;;
15645;SDS011;7922;43.622;1.476;2023-07-20T01:42:09;7.13;;;6.00;;
15645;SDS011;7922;43.622;1.476;2023-07-20T01:44:34;10.17;;;6.07;;
15645;SDS011;7922;43.622;1.476;2023-07-20T01:46:59;8.60;;;5.63;;
15645;SDS011;7922;43.622;1.476;2023-07-20T01:49:24;9.10;;;5.87;;
15645;SDS011;7922;43.622;1.476;2023-07-20T01:51:50;7.97;;;5.17;;
15645;SDS011;7922;43.622;1.476;2023-07-20T01:54:15;10.07;;;5.90;;
15645;SDS011;7922;43.622;1.476;2023-07-20T01:56:40;6.93;;;5.23;;
15645;SDS011;7922;43.622;1.476;2023-07-20T01:59:05;8.00;;;5.90;;
15645;SDS011;7922;43.622;1.476;2023-07-20T02:01:31;7.93;;;5.50;;
15645;SDS011;7922;43.622;1.476;2023-07-20T02:03:56;8.43;;;5.67;;
15645;SDS011;7922;43.622;1.476;2023-07-20T02:06:21;6.67;;;5.90;;
15645;SDS011;7922;43.622;1.476;2023-07-20T02:08:47;9.10;;;6.17;;
15645;SDS011;7922;43.622;1.476;2023-07-20T02:11:12;7.07;;;5.50;;
15645;SDS011;7922;43.622;1.476;2023-07-20T02:13:37;10.27;;;5.67;;
15645;SDS011;7922;43.622;1.476;2023-07-20T02:16:02;6.73;;;5.33;;
15645;SDS011;7922;43.622;1.476;2023-07-20T02:18:28;7.13;;;5.30;;
15645;SDS011;7922;43.622;1.476;2023-07-20T02:20:53;5.93;;;5.07;;
15645;SDS011;7922;43.622;1.476;2023-07-20T02:23:19;7.20;;;5.17;;
15645;SDS011;7922;43.622;1.476;2023-07-20T02:25:44;7.57;;;5.90;;
15645;SDS011;7922;43.622;1.476;2023-07-20T02:28:10;8.17;;;5.60;;
15645;SDS011;7922;43.622;1.476;2023-07-20T02:30:38;8.03;;;5.80;;
15645;SDS011;7922;43.622;1.476;2023-07-20T02:33:03;8.87;;;5.77;;
15645;SDS011;7922;43.622;1.476;2023-07-20T02:35:28;7.10;;;5.80;;
15645;SDS011;7922;43.622;1.476;2023-07-20T02:37:54;7.17;;;5.30;;
15645;SDS011;7922;43.622;1.476;2023-07-20T02:40:19;9.13;;;6.13;;
15645;SDS011;7922;43.622;1.476;2023-07-20T02:42:44;8.77;;;5.83;;
15645;SDS011;7922;43.622;1.476;2023-07-20T02:45:09;7.30;;;5.60;;
15645;SDS011;7922;43.622;1.476;2023-07-20T02:47:35;7.10;;;5.90;;
15645;SDS011;7922;43.622;1.476;2023-07-20T02:50:00;7.03;;;5.60;;
15645;SDS011;7922;43.622;1.476;2023-07-20T02:52:25;6.33;;;5.63;;
15645;SDS011;7922;43.622;1.476;2023-07-20T02:54:51;9.40;;;5.67;;
15645;SDS011;7922;43.622;1.476;2023-07-20T02:57:16;6.90;;;5.37;;
15645;SDS011;7922;43.622;1.476;2023-07-20T02:59:41;8.07;;;5.87;;
15645;SDS011;7922;43.622;1.476;2023-07-20T03:02:06;8.00;;;5.43;;
15645;SDS011;7922;43.622;1.476;2023-07-20T03:04:32;9.17;;;5.60;;
15645;SDS011;7922;43.622;1.476;2023-07-20T03:06:57;6.43;;;5.67;;
15645;SDS011;7922;43.622;1.476;2023-07-20T03:09:22;7.33;;;5.43;;
15645;SDS011;7922;43.622;1.476;2023-07-20T03:11:49;6.37;;;5.43;;
15645;SDS011;7922;43.622;1.476;2023-07-20T03:14:15;7.77;;;5.63;;
15645;SDS011;7922;43.622;1.476;2023-07-20T03:16:40;7.10;;;5.30;;
15645;SDS011;7922;43.622;1.476;2023-07-20T03:19:05;9.80;;;5.37;;
15645;SDS011;7922;43.622;1.476;2023-07-20T03:21:30;8.13;;;5.27;;
15645;SDS011;7922;43.622;1.476;2023-07-20T03:23:56;5.97;;;5.37;;
15645;SDS011;7922;43.622;1.476;2023-07-20T03:26:21;6.87;;;5.53;;
15645;SDS011;7922;43.622;1.476;2023-07-20T03:28:46;6.63;;;5.37;;
15645;SDS011;7922;43.622;1.476;2023-07-20T03:31:12;8.40;;;5.30;;
15645;SDS011;7922;43.622;1.476;2023-07-20T03:33:37;6.77;;;5.40;;
15645;SDS011;7922;43.622;1.476;2023-07-20T03:36:02;5.60;;;5.07;;
15645;SDS011;7922;43.622;1.476;2023-07-20T03:38:28;6.63;;;5.30;;
15645;SDS011;7922;43.622;1.476;2023-07-20T03:40:57;7.80;;;5.50;;
15645;SDS011;7922;43.622;1.476;2023-07-20T03:43:24;7.23;;;4.80;;
15645;SDS011;7922;43.622;1.476;2023-07-20T03:45:51;6.17;;;5.17;;
15645;SDS011;7922;43.622;1.476;2023-07-20T03:48:21;8.40;;;5.17;;
15645;SDS011;7922;43.622;1.476;2023-07-20T03:50:48;6.07;;;5.10;;
15645;SDS011;7922;43.622;1.476;2023-07-20T03:53:14;6.00;;;5.37;;
15645;SDS011;7922;43.622;1.476;2023-07-20T03:55:43;6.20;;;5.03;;
15645;SDS011;7922;43.622;1.476;2023-07-20T03:58:10;8.03;;;5.07;;
15645;SDS011;7922;43.622;1.476;2023-07-20T04:00:35;6.40;;;5.33;;
15645;SDS011;7922;43.622;1.476;2023-07-20T04:03:00;6.03;;;4.97;;
15645;SDS011;7922;43.622;1.476;2023-07-20T04:05:26;6.07;;;4.97;;
15645;SDS011;7922;43.622;1.476;2023-07-20T04:07:51;6.07;;;4.90;;
15645;SDS011;7922;43.622;1.476;2023-07-20T04:10:17;8.93;;;5.60;;
15645;SDS011;7922;43.622;1.476;2023-07-20T04:12:43;5.77;;;5.00;;
15645;SDS011;7922;43.622;1.476;2023-07-20T04:15:09;6.50;;;5.13;;
15645;SDS011;7922;43.622;1.476;2023-07-20T04:17:35;8.97;;;5.30;;
15645;SDS011;7922;43.622;1.476;2023-07-20T04:20:00;6.97;;;5.23;;
15645;SDS011;7922;43.622;1.476;2023-07-20T04:22:25;5.00;;;4.47;;
15645;SDS011;7922;43.622;1.476;2023-07-20T04:24:51;7.20;;;4.83;;
15645;SDS011;7922;43.622;1.476;2023-07-20T04:27:16;5.20;;;4.70;;
15645;SDS011;7922;43.622;1.476;2023-07-20T04:29:41;6.17;;;5.20;;
15645;SDS011;7922;43.622;1.476;2023-07-20T04:32:06;5.30;;;4.80;;
15645;SDS011;7922;43.622;1.476;2023-07-20T04:34:32;6.87;;;4.60;;
15645;SDS011;7922;43.622;1.476;2023-07-20T04:36:57;6.10;;;4.57;;
15645;SDS011;7922;43.622;1.476;2023-07-20T04:39:22;4.97;;;4.43;;
15645;SDS011;7922;43.622;1.476;2023-07-20T04:41:48;5.83;;;4.73;;
15645;SDS011;7922;43.622;1.476;2023-07-20T04:44:13;5.20;;;3.87;;
15645;SDS011;7922;43.622;1.476;2023-07-20T04:46:39;5.27;;;4.27;;
15645;SDS011;7922;43.622;1.476;2023-07-20T04:49:04;4.93;;;4.43;;
15645;SDS011;7922;43.622;1.476;2023-07-20T04:51:29;4.87;;;4.00;;
15645;SDS011;7922;43.622;1.476;2023-07-20T04:53:54;5.23;;;4.57;;
15645;SDS011;7922;43.622;1.476;2023-07-20T04:56:20;5.70;;;4.50;;
15645;SDS011;7922;43.622;1.476;2023-07-20T04:58:45;5.90;;;4.00;;
15645;SDS011;7922;43.622;1.476;2023-07-20T05:01:10;4.87;;;4.07;;
15645;SDS011;7922;43.622;1.476;2023-07-20T05:03:35;4.40;;;3.73;;
15645;SDS011;7922;43.622;1.476;2023-07-20T05:06:01;5.60;;;3.97;;
15645;SDS011;7922;43.622;1.476;2023-07-20T05:08:26;5.47;;;4.00;;
15645;SDS011;7922;43.622;1.476;2023-07-20T05:10:51;3.83;;;3.40;;
15645;SDS011;7922;43.622;1.476;2023-07-20T05:13:16;5.30;;;3.70;;
15645;SDS011;7922;43.622;1.476;2023-07-20T05:15:42;4.47;;;3.73;;
15645;SDS011;7922;43.622;1.476;2023-07-20T05:18:07;5.33;;;3.80;;
15645;SDS011;7922;43.622;1.476;2023-07-20T05:20:32;3.90;;;3.03;;
15645;SDS011;7922;43.622;1.476;2023-07-20T05:22:59;5.07;;;3.30;;
15645;SDS011;7922;43.622;1.476;2023-07-20T05:25:25;6.63;;;3.57;;
15645;SDS011;7922;43.622;1.476;2023-07-20T05:27:50;4.97;;;3.27;;
15645;SDS011;7922;43.622;1.476;2023-07-20T05:30:16;3.77;;;3.40;;
15645;SDS011;7922;43.622;1.476;2023-07-20T05:32:42;4.80;;;3.27;;
15645;SDS011;7922;43.622;1.476;2023-07-20T05:35:07;5.97;;;3.37;;
15645;SDS011;7922;43.622;1.476;2023-07-20T05:37:33;4.40;;;3.50;;
15645;SDS011;7922;43.622;1.476;2023-07-20T05:39:58;4.87;;;3.80;;
15645;SDS011;7922;43.622;1.476;2023-07-20T05:42:23;3.23;;;2.80;;
15645;SDS011;7922;43.622;1.476;2023-07-20T05:44:48;4.93;;;2.70;;
15645;SDS011;7922;43.622;1.476;2023-07-20T05:47:14;4.23;;;2.97;;
15645;SDS011;7922;43.622;1.476;2023-07-20T05:49:39;3.13;;;2.77;;
15645;SDS011;7922;43.622;1.476;2023-07-20T05:52:04;4.63;;;3.00;;
15645;SDS011;7922;43.622;1.476;2023-07-20T05:54:30;6.47;;;3.00;;
15645;SDS011;7922;43.622;1.476;2023-07-20T05:56:55;4.10;;;3.00;;
15645;SDS011;7922;43.622;1.476;2023-07-20T05:59:20;5.53;;;3.30;;
15645;SDS011;7922;43.622;1.476;2023-07-20T06:01:46;4.03;;;2.80;;
15645;SDS011;7922;43.622;1.476;2023-07-20T06:04:11;4.80;;;2.70;;
15645;SDS011;7922;43.622;1.476;2023-07-20T06:06:36;5.37;;;2.80;;
15645;SDS011;7922;43.622;1.476;2023-07-20T06:09:02;2.70;;;2.50;;
15645;SDS011;7922;43.622;1.476;2023-07-20T06:11:27;2.93;;;2.53;;
15645;SDS011;7922;43.622;1.476;2023-07-20T06:13:52;3.80;;;2.97;;
15645;SDS011;7922;43.622;1.476;2023-07-20T06:16:18;2.60;;;2.40;;
15645;SDS011;7922;43.622;1.476;2023-07-20T06:18:43;3.10;;;2.43;;
15645;SDS011;7922;43.622;1.476;2023-07-20T06:21:08;4.37;;;2.60;;
15645;SDS011;7922;43.622;1.476;2023-07-20T06:23:33;3.03;;;2.50;;
15645;SDS011;7922;43.622;1.476;2023-07-20T06:25:59;3.57;;;2.63;;
15645;SDS011;7922;43.622;1.476;2023-07-20T06:28:24;5.20;;;3.00;;
15645;SDS011;7922;43.622;1.476;2023-07-20T06:30:49;3.67;;;2.80;;
15645;SDS011;7922;43.622;1.476;2023-07-20T06:33:14;4.13;;;2.70;;
15645;SDS011;7922;43.622;1.476;2023-07-20T06:35:43;3.30;;;3.00;;
15645;SDS011;7922;43.622;1.476;2023-07-20T06:38:08;3.80;;;2.30;;
15645;SDS011;7922;43.622;1.476;2023-07-20T06:40:33;3.10;;;2.60;;
15645;SDS011;7922;43.622;1.476;2023-07-20T06:42:58;3.67;;;2.37;;
15645;SDS011;7922;43.622;1.476;2023-07-20T06:45:24;3.40;;;2.20;;
15645;SDS011;7922;43.622;1.476;2023-07-20T06:47:49;2.77;;;2.53;;
15645;SDS011;7922;43.622;1.476;2023-07-20T06:50:14;3.67;;;2.57;;
15645;SDS011;7922;43.622;1.476;2023-07-20T06:52:40;4.30;;;2.67;;
15645;SDS011;7922;43.622;1.476;2023-07-20T06:55:06;3.00;;;2.37;;
15645;SDS011;7922;43.622;1.476;2023-07-20T06:57:32;3.80;;;2.40;;
15645;SDS011;7922;43.622;1.476;2023-07-20T06:59:57;3.90;;;2.40;;
15645;SDS011;7922;43.622;1.476;2023-07-20T07:02:22;3.20;;;2.63;;
15645;SDS011;7922;43.622;1.476;2023-07-20T07:04:48;5.83;;;2.27;;
15645;SDS011;7922;43.622;1.476;2023-07-20T07:07:13;2.23;;;1.93;;
15645;SDS011;7922;43.622;1.476;2023-07-20T07:09:39;3.70;;;2.30;;
15645;SDS011;7922;43.622;1.476;2023-07-20T07:12:04;3.70;;;2.23;;
15645;SDS011;7922;43.622;1.476;2023-07-20T07:14:30;3.85;;;2.22;;
15645;SDS011;7922;43.622;1.476;2023-07-20T07:16:55;3.50;;;2.43;;
15645;SDS011;7922;43.622;1.476;2023-07-20T07:19:21;4.90;;;2.33;;
15645;SDS011;7922;43.622;1.476;2023-07-20T07:21:46;5.07;;;2.40;;
15645;SDS011;7922;43.622;1.476;2023-07-20T07:24:11;2.87;;;2.40;;
15645;SDS011;7922;43.622;1.476;2023-07-20T07:26:36;3.07;;;2.07;;
15645;SDS011;7922;43.622;1.476;2023-07-20T07:29:02;8.17;;;2.67;;
15645;SDS011;7922;43.622;1.476;2023-07-20T07:31:29;2.87;;;1.97;;
15645;SDS011;7922;43.622;1.476;2023-07-20T07:33:55;2.23;;;2.00;;
15645;SDS011;7922;43.622;1.476;2023-07-20T07:36:20;3.00;;;2.10;;
15645;SDS011;7922;43.622;1.476;2023-07-20T07:38:45;5.70;;;2.03;;
15645;SDS011;7922;43.622;1.476;2023-07-20T07:41:10;3.87;;;2.00;;
15645;SDS011;7922;43.622;1.476;2023-07-20T07:43:36;2.60;;;1.90;;
15645;SDS011;7922;43.622;1.476;2023-07-20T07:46:01;3.07;;;2.30;;
15645;SDS011;7922;43.622;1.476;2023-07-20T07:48:27;3.27;;;2.03;;
15645;SDS011;7922;43.622;1.476;2023-07-20T07:50:53;4.73;;;2.13;;
15645;SDS011;7922;43.622;1.476;2023-07-20T07:53:19;4.27;;;1.83;;
15645;SDS011;7922;43.622;1.476;2023-07-20T07:55:44;4.13;;;2.23;;
15645;SDS011;7922;43.622;1.476;2023-07-20T07:58:09;3.37;;;2.20;;
15645;SDS011;7922;43.622;1.476;2023-07-20T08:00:34;2.40;;;2.20;;
15645;SDS011;7922;43.622;1.476;2023-07-20T08:03:00;4.00;;;1.90;;
15645;SDS011;7922;43.622;1.476;2023-07-20T08:05:25;3.80;;;1.83;;
15645;SDS011;7922;43.622;1.476;2023-07-20T08:07:50;3.43;;;2.13;;
15645;SDS011;7922;43.622;1.476;2023-07-20T08:10:16;3.60;;;2.10;;
15645;SDS011;7922;43.622;1.476;2023-07-20T08:12:41;3.63;;;2.20;;
15645;SDS011;7922;43.622;1.476;2023-07-20T08:15:06;4.03;;;2.30;;
15645;SDS011;7922;43.622;1.476;2023-07-20T08:17:32;6.37;;;2.70;;
15645;SDS011;7922;43.622;1.476;2023-07-20T08:19:57;2.97;;;2.30;;
15645;SDS011;7922;43.622;1.476;2023-07-20T08:22:22;5.33;;;2.17;;
15645;SDS011;7922;43.622;1.476;2023-07-20T08:24:48;3.30;;;2.10;;
15645;SDS011;7922;43.622;1.476;2023-07-20T08:27:13;4.20;;;2.17;;
15645;SDS011;7922;43.622;1.476;2023-07-20T08:29:38;5.13;;;1.90;;
15645;SDS011;7922;43.622;1.476;2023-07-20T08:32:04;4.93;;;2.67;;
15645;SDS011;7922;43.622;1.476;2023-07-20T08:34:30;5.00;;;2.43;;
15645;SDS011;7922;43.622;1.476;2023-07-20T08:36:56;4.70;;;2.13;;
15645;SDS011;7922;43.622;1.476;2023-07-20T08:39:22;3.97;;;2.10;;
15645;SDS011;7922;43.622;1.476;2023-07-20T08:41:47;3.53;;;2.17;;
15645;SDS011;7922;43.622;1.476;2023-07-20T08:44:13;3.80;;;2.20;;
15645;SDS011;7922;43.622;1.476;2023-07-20T08:46:38;4.93;;;2.67;;
15645;SDS011;7922;43.622;1.476;2023-07-20T08:49:05;4.27;;;2.00;;
15645;SDS011;7922;43.622;1.476;2023-07-20T08:51:31;4.50;;;2.00;;
15645;SDS011;7922;43.622;1.476;2023-07-20T08:53:58;2.77;;;1.70;;
15645;SDS011;7922;43.622;1.476;2023-07-20T08:56:23;2.87;;;1.90;;
15645;SDS011;7922;43.622;1.476;2023-07-20T08:58:51;2.33;;;2.07;;
15645;SDS011;7922;43.622;1.476;2023-07-20T09:01:18;2.73;;;1.90;;
15645;SDS011;7922;43.622;1.476;2023-07-20T09:03:45;2.70;;;1.93;;
15645;SDS011;7922;43.622;1.476;2023-07-20T09:06:10;2.30;;;1.70;;
15645;SDS011;7922;43.622;1.476;2023-07-20T09:08:39;4.10;;;2.07;;
15645;SDS011;7922;43.622;1.476;2023-07-20T09:11:04;2.10;;;1.90;;
15645;SDS011;7922;43.622;1.476;2023-07-20T09:13:30;3.60;;;2.00;;
15645;SDS011;7922;43.622;1.476;2023-07-20T09:15:57;5.40;;;2.40;;
15645;SDS011;7922;43.622;1.476;2023-07-20T09:18:24;2.13;;;1.93;;
15645;SDS011;7922;43.622;1.476;2023-07-20T09:21:03;5.20;;;2.20;;
15645;SDS011;7922;43.622;1.476;2023-07-20T09:23:33;2.10;;;1.77;;
15645;SDS011;7922;43.622;1.476;2023-07-20T09:26:00;4.37;;;2.00;;
15645;SDS011;7922;43.622;1.476;2023-07-20T09:28:26;4.80;;;1.90;;
15645;SDS011;7922;43.622;1.476;2023-07-20T09:30:51;3.17;;;1.90;;
15645;SDS011;7922;43.622;1.476;2023-07-20T09:33:18;2.67;;;1.90;;
15645;SDS011;7922;43.622;1.476;2023-07-20T09:35:46;5.87;;;2.20;;
15645;SDS011;7922;43.622;1.476;2023-07-20T09:38:11;4.00;;;2.70;;
15645;SDS011;7922;43.622;1.476;2023-07-20T09:40:39;5.37;;;2.30;;
15645;SDS011;7922;43.622;1.476;2023-07-20T09:43:07;3.60;;;1.93;;
15645;SDS011;7922;43.622;1.476;2023-07-20T09:45:33;9.53;;;2.70;;
15645;SDS011;7922;43.622;1.476;2023-07-20T09:48:03;4.57;;;2.17;;
15645;SDS011;7922;43.622;1.476;2023-07-20T09:50:29;3.87;;;2.10;;
15645;SDS011;7922;43.622;1.476;2023-07-20T09:52:54;4.13;;;2.10;;
15645;SDS011;7922;43.622;1.476;2023-07-20T09:55:20;2.90;;;2.07;;
15645;SDS011;7922;43.622;1.476;2023-07-20T09:57:46;3.53;;;1.70;;
15645;SDS011;7922;43.622;1.476;2023-07-20T10:00:12;3.13;;;2.07;;
15645;SDS011;7922;43.622;1.476;2023-07-20T10:02:41;3.57;;;1.90;;
15645;SDS011;7922;43.622;1.476;2023-07-20T10:05:14;5.20;;;2.10;;
15645;SDS011;7922;43.622;1.476;2023-07-20T10:07:49;2.90;;;2.00;;
15645;SDS011;7922;43.622;1.476;2023-07-20T10:10:16;3.63;;;1.87;;
15645;SDS011;7922;43.622;1.476;2023-07-20T10:12:43;5.07;;;2.00;;
15645;SDS011;7922;43.622;1.476;2023-07-20T10:15:13;4.15;;;2.30;;
15645;SDS011;7922;43.622;1.476;2023-07-20T10:20:28;5.32;;;2.30;;
15645;SDS011;7922;43.622;1.476;2023-07-20T10:22:55;2.40;;;2.20;;
15645;SDS011;7922;43.622;1.476;2023-07-20T10:25:22;4.57;;;2.30;;
15645;SDS011;7922;43.622;1.476;2023-07-20T10:27:48;3.83;;;2.10;;
15645;SDS011;7922;43.622;1.476;2023-07-20T10:30:14;5.20;;;2.35;;
15645;SDS011;7922;43.622;1.476;2023-07-20T10:32:40;3.53;;;2.05;;
15645;SDS011;7922;43.622;1.476;2023-07-20T10:35:12;4.38;;;2.15;;
15645;SDS011;7922;43.622;1.476;2023-07-20T10:42:55;3.97;;;2.03;;
15645;SDS011;7922;43.622;1.476;2023-07-20T10:48:12;4.32;;;2.10;;
15645;SDS011;7922;43.622;1.476;2023-07-20T10:50:43;3.05;;;2.05;;
15645;SDS011;7922;43.622;1.476;2023-07-20T10:53:16;5.80;;;2.40;;
15645;SDS011;7922;43.622;1.476;2023-07-20T10:55:42;5.07;;;2.40;;
15645;SDS011;7922;43.622;1.476;2023-07-20T10:58:09;4.17;;;2.30;;
15645;SDS011;7922;43.622;1.476;2023-07-20T11:00:54;4.20;;;2.00;;
15645;SDS011;7922;43.622;1.476;2023-07-20T11:03:30;5.80;;;2.67;;
15645;SDS011;7922;43.622;1.476;2023-07-20T11:05:58;3.35;;;2.42;;
15645;SDS011;7922;43.622;1.476;2023-07-20T11:08:44;2.70;;;2.22;;
15645;SDS011;7922;43.622;1.476;2023-07-20T11:11:25;5.75;;;2.50;;
15645;SDS011;7922;43.622;1.476;2023-07-20T11:14:09;3.33;;;2.35;;
15645;SDS011;7922;43.622;1.476;2023-07-20T11:16:45;4.05;;;2.50;;
15645;SDS011;7922;43.622;1.476;2023-07-20T11:21:41;3.70;;;2.45;;
15645;SDS011;7922;43.622;1.476;2023-07-20T11:24:08;2.22;;;2.03;;
15645;SDS011;7922;43.622;1.476;2023-07-20T11:26:39;4.32;;;2.33;;
15645;SDS011;7922;43.622;1.476;2023-07-20T11:29:05;3.13;;;2.17;;
15645;SDS011;7922;43.622;1.476;2023-07-20T11:31:34;3.15;;;2.20;;
15645;SDS011;7922;43.622;1.476;2023-07-20T11:34:00;3.55;;;2.30;;
15645;SDS011;7922;43.622;1.476;2023-07-20T11:36:25;3.35;;;2.20;;
15645;SDS011;7922;43.622;1.476;2023-07-20T11:38:51;3.40;;;2.08;;
15645;SDS011;7922;43.622;1.476;2023-07-20T11:41:16;3.58;;;2.17;;
15645;SDS011;7922;43.622;1.476;2023-07-20T11:43:41;2.92;;;2.60;;
15645;SDS011;7922;43.622;1.476;2023-07-20T11:46:07;2.83;;;2.10;;
15645;SDS011;7922;43.622;1.476;2023-07-20T11:48:32;2.20;;;2.00;;
15645;SDS011;7922;43.622;1.476;2023-07-20T11:50:58;3.67;;;2.20;;
15645;SDS011;7922;43.622;1.476;2023-07-20T11:53:24;2.72;;;2.20;;
15645;SDS011;7922;43.622;1.476;2023-07-20T11:55:50;4.10;;;2.20;;
15645;SDS011;7922;43.622;1.476;2023-07-20T11:58:16;3.92;;;2.47;;
15645;SDS011;7922;43.622;1.476;2023-07-20T12:00:42;2.42;;;2.00;;
15645;SDS011;7922;43.622;1.476;2023-07-20T12:03:09;3.05;;;2.75;;
15645;SDS011;7922;43.622;1.476;2023-07-20T12:05:35;4.30;;;2.30;;
15645;SDS011;7922;43.622;1.476;2023-07-20T12:08:01;3.08;;;2.00;;
15645;SDS011;7922;43.622;1.476;2023-07-20T12:10:27;4.50;;;2.25;;
15645;SDS011;7922;43.622;1.476;2023-07-20T12:12:53;4.40;;;2.53;;
15645;SDS011;7922;43.622;1.476;2023-07-20T12:15:20;4.80;;;2.10;;
15645;SDS011;7922;43.622;1.476;2023-07-20T12:17:50;2.33;;;1.92;;
15645;SDS011;7922;43.622;1.476;2023-07-20T12:20:29;2.75;;;2.08;;
15645;SDS011;7922;43.622;1.476;2023-07-20T12:23:02;2.30;;;2.00;;
15645;SDS011;7922;43.622;1.476;2023-07-20T12:25:41;4.20;;;2.15;;
15645;SDS011;7922;43.622;1.476;2023-07-20T12:28:08;3.05;;;2.00;;
15645;SDS011;7922;43.622;1.476;2023-07-20T12:30:38;5.10;;;2.30;;
15645;SDS011;7922;43.622;1.476;2023-07-20T12:33:04;5.72;;;2.00;;
15645;SDS011;7922;43.622;1.476;2023-07-20T12:35:29;2.45;;;2.20;;
15645;SDS011;7922;43.622;1.476;2023-07-20T12:37:55;4.70;;;2.38;;
15645;SDS011;7922;43.622;1.476;2023-07-20T12:40:20;3.53;;;2.40;;
15645;SDS011;7922;43.622;1.476;2023-07-20T12:42:46;2.85;;;1.90;;
15645;SDS011;7922;43.622;1.476;2023-07-20T12:45:11;3.88;;;2.08;;
15645;SDS011;7922;43.622;1.476;2023-07-20T12:47:36;2.53;;;1.90;;
15645;SDS011;7922;43.622;1.476;2023-07-20T12:50:02;2.95;;;2.00;;
15645;SDS011;7922;43.622;1.476;2023-07-20T12:52:27;3.22;;;2.30;;
15645;SDS011;7922;43.622;1.476;2023-07-20T12:54:52;3.15;;;2.10;;
15645;SDS011;7922;43.622;1.476;2023-07-20T12:57:18;2.63;;;2.08;;
15645;SDS011;7922;43.622;1.476;2023-07-20T12:59:43;2.75;;;2.00;;
15645;SDS011;7922;43.622;1.476;2023-07-20T13:02:08;2.80;;;2.00;;
15645;SDS011;7922;43.622;1.476;2023-07-20T13:04:34;3.22;;;2.42;;
15645;SDS011;7922;43.622;1.476;2023-07-20T13:06:59;3.92;;;2.33;;
15645;SDS011;7922;43.622;1.476;2023-07-20T13:09:24;2.00;;;1.80;;
15645;SDS011;7922;43.622;1.476;2023-07-20T13:11:50;3.65;;;2.20;;
15645;SDS011;7922;43.622;1.476;2023-07-20T13:14:15;3.42;;;2.20;;
15645;SDS011;7922;43.622;1.476;2023-07-20T13:16:40;2.85;;;2.03;;
15645;SDS011;7922;43.622;1.476;2023-07-20T13:19:05;2.22;;;2.00;;
15645;SDS011;7922;43.622;1.476;2023-07-20T13:21:31;2.88;;;1.77;;
15645;SDS011;7922;43.622;1.476;2023-07-20T13:23:56;2.83;;;2.28;;
15645;SDS011;7922;43.622;1.476;2023-07-20T13:26:21;3.10;;;2.30;;
15645;SDS011;7922;43.622;1.476;2023-07-20T13:28:47;2.78;;;2.08;;
15645;SDS011;7922;43.622;1.476;2023-07-20T13:31:12;8.85;;;2.40;;
15645;SDS011;7922;43.622;1.476;2023-07-20T13:33:37;2.80;;;2.47;;
15645;SDS011;7922;43.622;1.476;2023-07-20T13:36:03;4.47;;;2.40;;
15645;SDS011;7922;43.622;1.476;2023-07-20T13:38:28;4.05;;;2.30;;
15645;SDS011;7922;43.622;1.476;2023-07-20T13:40:53;2.53;;;2.25;;
15645;SDS011;7922;43.622;1.476;2023-07-20T13:43:19;7.25;;;2.42;;
15645;SDS011;7922;43.622;1.476;2023-07-20T13:45:44;3.78;;;2.35;;
15645;SDS011;7922;43.622;1.476;2023-07-20T13:48:09;5.63;;;2.35;;
15645;SDS011;7922;43.622;1.476;2023-07-20T13:50:34;3.58;;;2.40;;
15645;SDS011;7922;43.622;1.476;2023-07-20T13:53:00;2.60;;;2.33;;
15645;SDS011;7922;43.622;1.476;2023-07-20T13:55:25;4.28;;;2.10;;
15645;SDS011;7922;43.622;1.476;2023-07-20T13:57:50;2.95;;;2.10;;
15645;SDS011;7922;43.622;1.476;2023-07-20T14:00:16;2.60;;;2.38;;
15645;SDS011;7922;43.622;1.476;2023-07-20T14:02:41;3.63;;;1.90;;
15645;SDS011;7922;43.622;1.476;2023-07-20T14:05:06;2.65;;;2.42;;
15645;SDS011;7922;43.622;1.476;2023-07-20T14:07:32;2.53;;;2.17;;
15645;SDS011;7922;43.622;1.476;2023-07-20T14:09:57;3.85;;;2.65;;
15645;SDS011;7922;43.622;1.476;2023-07-20T14:12:23;4.45;;;2.30;;
15645;SDS011;7922;43.622;1.476;2023-07-20T14:14:48;4.30;;;2.30;;
15645;SDS011;7922;43.622;1.476;2023-07-20T14:17:13;4.13;;;2.40;;
15645;SDS011;7922;43.622;1.476;2023-07-20T14:19:38;3.13;;;2.53;;
15645;SDS011;7922;43.622;1.476;2023-07-20T14:22:04;4.47;;;2.20;;
15645;SDS011;7922;43.622;1.476;2023-07-20T14:24:29;3.83;;;2.58;;
15645;SDS011;7922;43.622;1.476;2023-07-20T14:26:55;3.08;;;2.22;;
15645;SDS011;7922;43.622;1.476;2023-07-20T14:29:20;4.20;;;2.30;;
15645;SDS011;7922;43.622;1.476;2023-07-20T14:31:46;2.42;;;2.17;;
15645;SDS011;7922;43.622;1.476;2023-07-20T14:34:11;3.13;;;2.20;;
15645;SDS011;7922;43.622;1.476;2023-07-20T14:36:36;3.58;;;2.22;;
15645;SDS011;7922;43.622;1.476;2023-07-20T14:39:02;4.18;;;2.10;;
15645;SDS011;7922;43.622;1.476;2023-07-20T14:41:27;3.90;;;2.25;;
15645;SDS011;7922;43.622;1.476;2023-07-20T14:43:53;4.10;;;2.33;;
15645;SDS011;7922;43.622;1.476;2023-07-20T14:46:18;3.42;;;2.35;;
15645;SDS011;7922;43.622;1.476;2023-07-20T14:48:43;3.83;;;2.35;;
15645;SDS011;7922;43.622;1.476;2023-07-20T14:51:08;4.68;;;2.38;;
15645;SDS011;7922;43.622;1.476;2023-07-20T14:53:34;3.08;;;2.45;;
15645;SDS011;7922;43.622;1.476;2023-07-20T14:56:02;3.53;;;2.30;;
15645;SDS011;7922;43.622;1.476;2023-07-20T14:58:28;3.63;;;2.58;;
15645;SDS011;7922;43.622;1.476;2023-07-20T15:00:54;3.45;;;2.10;;
15645;SDS011;7922;43.622;1.476;2023-07-20T15:03:19;2.90;;;2.40;;
15645;SDS011;7922;43.622;1.476;2023-07-20T15:05:45;3.17;;;2.13;;
15645;SDS011;7922;43.622;1.476;2023-07-20T15:08:10;3.03;;;2.72;;
15645;SDS011;7922;43.622;1.476;2023-07-20T15:10:35;2.35;;;2.15;;
15645;SDS011;7922;43.622;1.476;2023-07-20T15:13:00;4.90;;;2.30;;
15645;SDS011;7922;43.622;1.476;2023-07-20T15:15:26;2.75;;;2.35;;